createdAt,value
2023-10-15T00:00:28.464Z,20.05
2023-10-15T00:02:55.693Z,10.70
2023-10-15T00:05:26.644Z,18.42
2023-10-15T00:07:54.224Z,20.20
2023-10-15T00:10:23.376Z,28.95
2023-10-15T00:12:52.642Z,13.45
2023-10-15T00:15:21.094Z,22.35
2023-10-15T00:17:52.839Z,10.50
2023-10-15T00:20:21.484Z,15.32
2023-10-15T00:22:52.437Z,9.98
2023-10-15T00:25:21.006Z,17.52
2023-10-15T00:27:54.278Z,25.38
2023-10-15T00:30:22.548Z,18.95
2023-10-15T00:32:53.545Z,24.55
2023-10-15T00:35:21.327Z,11.35
2023-10-15T00:40:26.979Z,10.03
2023-10-15T00:42:55.504Z,13.63
2023-10-15T00:48:07.078Z,7.65
2023-10-15T00:50:43.380Z,27.65
2023-10-15T00:53:25.798Z,16.27
2023-10-15T00:56:06.376Z,10.82
2023-10-15T00:58:33.838Z,13.68
2023-10-15T01:01:21.955Z,13.15
2023-10-15T01:04:00.649Z,23.75
2023-10-15T01:06:35.581Z,12.95
2023-10-15T01:09:11.987Z,18.05
2023-10-15T01:11:52.664Z,26.42
2023-10-15T01:14:33.284Z,24.92
2023-10-15T01:17:01.655Z,35.78
2023-10-15T01:19:33.863Z,13.30
2023-10-15T01:22:05.020Z,27.40
2023-10-15T01:24:39.273Z,28.80
2023-10-15T01:27:09.316Z,16.00
2023-10-15T01:29:42.718Z,21.63
2023-10-15T01:32:20.788Z,16.35
2023-10-15T01:34:50.569Z,25.20
2023-10-15T01:37:25.857Z,22.50
2023-10-15T01:40:02.105Z,32.17
2023-10-15T01:42:29.454Z,17.02
2023-10-15T01:45:09.900Z,49.42
2023-10-15T01:47:37.855Z,40.50
2023-10-15T01:50:11.383Z,45.42
2023-10-15T01:52:41.492Z,38.08
2023-10-15T01:55:08.782Z,25.98
2023-10-15T01:57:40.366Z,49.45
2023-10-15T02:00:15.834Z,25.08
2023-10-15T02:02:46.546Z,26.95
2023-10-15T02:05:42.179Z,41.65
2023-10-15T02:08:14.815Z,39.95
2023-10-15T02:10:47.481Z,30.67
2023-10-15T02:13:18.824Z,28.90
2023-10-15T02:15:50.457Z,38.25
2023-10-15T02:18:20.484Z,36.20
2023-10-15T02:21:01.672Z,28.90
2023-10-15T02:23:34.241Z,40.25
2023-10-15T02:26:01.535Z,31.48
2023-10-15T02:28:37.134Z,33.20
2023-10-15T02:31:04.369Z,15.77
2023-10-15T02:33:31.943Z,25.48
2023-10-15T02:38:35.186Z,20.80
2023-10-15T02:41:07.070Z,17.92
2023-10-15T02:43:41.819Z,11.85
2023-10-15T02:46:23.978Z,2.60
2023-10-15T02:48:56.482Z,12.23
2023-10-15T02:51:27.897Z,16.35
2023-10-15T02:54:02.475Z,6.05
2023-10-15T02:56:29.714Z,8.77
2023-10-15T02:58:57.787Z,12.95
2023-10-15T03:01:26.078Z,9.85
2023-10-15T03:03:56.248Z,18.75
2023-10-15T03:06:32.855Z,13.00
2023-10-15T03:09:00.738Z,3.58
2023-10-15T03:11:39.430Z,7.47
2023-10-15T03:14:07.915Z,12.13
2023-10-15T03:16:36.301Z,6.53
2023-10-15T03:19:20.752Z,12.90
2023-10-15T03:21:48.848Z,4.00
2023-10-15T03:24:17.319Z,27.83
2023-10-15T03:26:48.652Z,6.38
2023-10-15T03:29:16.176Z,12.00
2023-10-15T03:31:50.071Z,7.85
2023-10-15T03:34:24.128Z,5.28
2023-10-15T03:36:52.644Z,20.02
2023-10-15T03:39:43.557Z,6.80
2023-10-15T03:42:11.253Z,1.55
2023-10-15T03:44:46.727Z,6.93
2023-10-15T03:47:23.257Z,6.38
2023-10-15T03:49:52.457Z,13.65
2023-10-15T03:52:23.560Z,5.18
2023-10-15T03:54:51.635Z,0.68
2023-10-15T03:57:20.356Z,1.98
2023-10-15T03:59:53.995Z,5.38
2023-10-15T04:02:40.820Z,12.88
2023-10-15T04:05:13.504Z,8.57
2023-10-15T04:07:49.247Z,16.40
2023-10-15T04:10:24.464Z,21.48
2023-10-15T04:12:51.833Z,16.20
2023-10-15T04:15:18.874Z,24.25
2023-10-15T04:17:46.807Z,14.23
2023-10-15T04:20:27.439Z,14.85
2023-10-15T04:22:55.245Z,6.90
2023-10-15T04:25:26.296Z,10.77
2023-10-15T04:27:54.858Z,14.00
2023-10-15T04:30:22.408Z,14.30
2023-10-15T04:32:49.457Z,12.85
2023-10-15T04:35:19.863Z,9.77
2023-10-15T04:37:57.531Z,12.07
2023-10-15T04:40:25.009Z,12.27
2023-10-15T04:45:43.140Z,3.63
2023-10-15T04:48:16.891Z,0.63
2023-10-15T04:50:44.898Z,4.28
2023-10-15T04:53:24.848Z,10.13
2023-10-15T04:55:53.767Z,10.50
2023-10-15T04:58:21.756Z,9.50
2023-10-15T05:00:50.128Z,11.93
2023-10-15T05:03:18.101Z,7.57
2023-10-15T05:05:45.962Z,8.63
2023-10-15T05:08:13.808Z,11.32
2023-10-15T05:10:51.117Z,7.93
2023-10-15T05:13:19.112Z,12.27
2023-10-15T05:18:15.960Z,11.05
2023-10-15T05:20:44.361Z,13.38
2023-10-15T05:23:11.642Z,6.45
2023-10-15T05:25:42.227Z,13.48
2023-10-15T05:28:10.336Z,14.27
2023-10-15T05:30:39.007Z,10.57
2023-10-15T05:33:07.483Z,19.77
2023-10-15T05:35:35.858Z,23.15
2023-10-15T05:38:03.094Z,17.50
2023-10-15T05:40:31.075Z,13.18
2023-10-15T05:42:58.158Z,18.52
2023-10-15T05:45:25.287Z,13.00
2023-10-15T05:47:52.507Z,10.88
2023-10-15T05:50:19.974Z,16.77
2023-10-15T05:52:49.223Z,14.82
2023-10-15T05:55:16.220Z,15.23
2023-10-15T05:57:44.513Z,17.42
2023-10-15T06:00:21.358Z,7.97
2023-10-15T06:02:52.105Z,17.63
2023-10-15T06:05:19.171Z,7.10
2023-10-15T06:07:47.498Z,22.05
2023-10-15T06:10:15.382Z,4.97
2023-10-15T06:12:43.662Z,18.08
2023-10-15T06:15:21.905Z,15.27
2023-10-15T06:17:51.624Z,15.27
2023-10-15T06:20:18.704Z,15.18
2023-10-15T06:22:47.709Z,19.45
2023-10-15T06:25:18.803Z,11.95
2023-10-15T06:27:46.660Z,11.80
2023-10-15T06:30:20.064Z,18.15
2023-10-15T06:32:51.366Z,17.38
2023-10-15T06:35:19.919Z,13.85
2023-10-15T06:37:51.542Z,11.40
2023-10-15T06:40:23.786Z,18.70
2023-10-15T06:42:53.421Z,18.27
2023-10-15T06:45:21.441Z,18.20
2023-10-15T06:47:53.183Z,18.45
2023-10-15T06:50:24.743Z,14.40
2023-10-15T06:52:53.958Z,14.43
2023-10-15T06:55:21.819Z,11.27
2023-10-15T06:57:49.984Z,8.98
2023-10-15T07:00:27.508Z,14.45
2023-10-15T07:02:57.486Z,7.82
2023-10-15T07:05:27.019Z,12.93
2023-10-15T07:07:59.043Z,8.48
2023-10-15T07:10:39.376Z,11.27
2023-10-15T07:13:07.455Z,12.88
2023-10-15T07:15:37.999Z,9.93
2023-10-15T07:18:05.648Z,13.52
2023-10-15T07:23:02.797Z,5.30
2023-10-15T07:25:29.888Z,8.00
2023-10-15T07:27:58.627Z,10.68
2023-10-15T07:30:26.721Z,13.23
2023-10-15T07:32:55.712Z,10.73
2023-10-15T07:35:25.332Z,6.97
2023-10-15T07:37:53.224Z,12.52
2023-10-15T07:40:27.139Z,10.80
2023-10-15T07:43:00.876Z,15.65
2023-10-15T07:45:30.915Z,7.18
2023-10-15T07:48:02.644Z,8.18
2023-10-15T07:50:31.735Z,11.48
2023-10-15T07:52:59.099Z,11.48
2023-10-15T07:55:27.130Z,6.20
2023-10-15T07:57:54.580Z,11.38
2023-10-15T08:00:25.161Z,15.35
2023-10-15T08:03:00.490Z,4.07
2023-10-15T08:05:38.968Z,11.75
2023-10-15T08:08:07.017Z,3.75
2023-10-15T08:10:36.374Z,8.15
2023-10-15T08:13:05.161Z,2.63
2023-10-15T08:15:34.728Z,1.05
2023-10-15T08:18:03.144Z,5.10
2023-10-15T08:20:30.395Z,6.00
2023-10-15T08:22:57.274Z,10.57
2023-10-15T08:25:24.202Z,0.77
2023-10-15T08:27:51.227Z,2.92
2023-10-15T08:30:19.030Z,5.28
2023-10-15T08:32:47.556Z,3.47
2023-10-15T08:35:16.866Z,7.15
2023-10-15T08:37:44.844Z,6.70
2023-10-15T08:40:20.801Z,3.20
2023-10-15T08:42:58.362Z,0.73
2023-10-15T08:47:54.597Z,4.78
2023-10-15T08:50:23.729Z,1.75
2023-10-15T08:52:55.007Z,3.58
2023-10-15T08:55:24.093Z,3.00
2023-10-15T08:57:58.057Z,3.30
2023-10-15T09:00:32.269Z,1.52
2023-10-15T09:03:01.961Z,2.42
2023-10-15T09:05:35.133Z,2.78
2023-10-15T09:08:08.790Z,2.78
2023-10-15T09:10:37.792Z,1.90
2023-10-15T09:13:06.255Z,2.55
2023-10-15T09:15:33.453Z,0.40
2023-10-15T09:18:01.127Z,2.28
2023-10-15T09:20:29.102Z,2.58
2023-10-15T09:23:02.967Z,5.25
2023-10-15T09:25:31.609Z,1.13
2023-10-15T09:30:33.203Z,1.02
2023-10-15T09:33:00.225Z,0.80
2023-10-15T09:35:27.187Z,3.40
2023-10-15T09:37:57.345Z,1.13
2023-10-15T09:40:32.435Z,2.65
2023-10-15T09:43:00.887Z,4.68
2023-10-15T09:45:31.834Z,2.88
2023-10-15T09:47:59.243Z,3.88
2023-10-15T09:50:29.324Z,1.85
2023-10-15T09:52:57.998Z,1.10
2023-10-15T09:55:30.316Z,2.03
2023-10-15T09:57:59.442Z,2.80
2023-10-15T10:00:47.458Z,0.45
2023-10-15T10:03:48.980Z,0.60
2023-10-15T10:06:16.717Z,4.13
2023-10-15T10:08:59.645Z,1.55
2023-10-15T10:11:39.677Z,4.82
2023-10-15T10:14:49.669Z,1.90
2023-10-15T10:17:19.366Z,0.80
2023-10-15T10:19:53.447Z,0.95
2023-10-15T10:22:30.482Z,0.68
2023-10-15T10:25:01.095Z,1.65
2023-10-15T10:27:28.336Z,0.73
2023-10-15T10:30:31.897Z,2.33
2023-10-15T10:32:59.453Z,5.18
2023-10-15T10:38:07.026Z,1.33
2023-10-15T10:40:58.040Z,0.77
2023-10-15T10:43:27.225Z,0.45
2023-10-15T10:45:55.818Z,6.10
2023-10-15T10:48:32.737Z,2.60
2023-10-15T10:51:16.666Z,3.90
2023-10-15T10:53:59.035Z,3.45
2023-10-15T10:56:46.309Z,2.65
2023-10-15T10:59:16.779Z,1.08
2023-10-15T11:01:49.847Z,4.13
2023-10-15T11:04:17.468Z,1.08
2023-10-15T11:06:50.097Z,0.32
2023-10-15T11:09:17.186Z,1.20
2023-10-15T11:11:45.549Z,0.68
2023-10-15T11:14:14.045Z,2.30
2023-10-15T11:16:43.739Z,4.90
2023-10-15T11:19:17.783Z,4.03
2023-10-15T11:21:48.362Z,5.72
2023-10-15T11:24:18.752Z,5.10
2023-10-15T11:26:46.849Z,6.25
2023-10-15T11:29:23.233Z,5.00
2023-10-15T11:31:55.029Z,0.38
2023-10-15T11:34:23.993Z,2.83
2023-10-15T11:36:53.212Z,0.52
2023-10-15T11:39:26.939Z,3.45
2023-10-15T11:41:57.724Z,0.30
2023-10-15T11:44:32.661Z,4.93
2023-10-15T11:47:10.308Z,1.15
2023-10-15T11:49:44.028Z,4.53
2023-10-15T11:52:18.224Z,2.67
2023-10-15T11:54:50.539Z,1.98
2023-10-15T11:57:22.390Z,2.67
2023-10-15T11:59:56.399Z,2.08
2023-10-15T12:02:25.405Z,0.88
2023-10-15T12:04:57.655Z,0.20
2023-10-15T12:07:24.481Z,2.72
2023-10-15T12:09:52.862Z,1.80
2023-10-15T12:12:20.053Z,2.72
2023-10-15T12:14:47.357Z,3.60
2023-10-15T12:17:17.236Z,3.90
2023-10-15T12:19:46.187Z,1.23
2023-10-15T12:22:17.494Z,3.13
2023-10-15T12:24:44.630Z,3.72
2023-10-15T12:27:12.492Z,0.63
2023-10-15T12:29:40.653Z,2.38
2023-10-15T12:32:12.029Z,3.80
2023-10-15T12:34:39.201Z,0.30
2023-10-15T12:37:09.623Z,1.10
2023-10-15T12:39:41.537Z,3.40
2023-10-15T12:42:10.377Z,2.53
2023-10-15T12:44:40.487Z,7.63
2023-10-15T12:47:11.446Z,6.75
2023-10-15T12:49:38.520Z,4.20
2023-10-15T12:52:09.519Z,2.92
2023-10-15T12:54:37.281Z,1.27
2023-10-15T12:59:37.290Z,1.30
2023-10-15T13:02:05.696Z,5.03
2023-10-15T13:04:32.812Z,1.17
2023-10-15T13:06:59.860Z,2.00
2023-10-15T13:09:33.908Z,3.83
2023-10-15T13:12:02.537Z,0.63
2023-10-15T13:14:29.815Z,2.17
2023-10-15T13:16:58.386Z,3.22
2023-10-15T13:19:25.556Z,6.60
2023-10-15T13:21:52.694Z,2.15
2023-10-15T13:24:19.675Z,1.83
2023-10-15T13:26:48.015Z,1.15
2023-10-15T13:29:15.845Z,5.88
2023-10-15T13:31:42.918Z,0.90
2023-10-15T13:34:10.820Z,0.25
2023-10-15T13:36:38.804Z,5.20
2023-10-15T13:39:08.149Z,3.45
2023-10-15T13:41:35.686Z,2.22
2023-10-15T13:44:02.894Z,0.73
2023-10-15T13:46:29.988Z,4.40
2023-10-15T13:48:56.976Z,1.45
2023-10-15T13:51:26.146Z,1.77
2023-10-15T13:53:53.396Z,3.50
2023-10-15T13:56:21.202Z,0.50
2023-10-15T13:58:48.528Z,0.47
2023-10-15T14:01:17.034Z,4.55
2023-10-15T14:03:45.564Z,0.30
2023-10-15T14:06:13.496Z,2.20
2023-10-15T14:11:08.724Z,3.67
2023-10-15T14:13:35.759Z,3.35
2023-10-15T14:16:04.342Z,0.80
2023-10-15T14:18:34.382Z,2.25
2023-10-15T14:21:04.593Z,1.58
2023-10-15T14:23:31.894Z,4.10
2023-10-15T14:26:01.766Z,5.43
2023-10-15T14:28:28.876Z,1.85
2023-10-15T14:30:55.989Z,0.63
2023-10-15T14:33:23.087Z,1.88
2023-10-15T14:35:54.145Z,1.33
2023-10-15T14:38:21.968Z,0.30
2023-10-15T14:43:16.284Z,2.40
2023-10-15T14:45:46.777Z,6.95
2023-10-15T14:48:20.913Z,3.58
2023-10-15T14:50:48.669Z,1.00
2023-10-15T14:53:15.855Z,5.00
2023-10-15T14:55:49.256Z,5.72
2023-10-15T14:58:21.000Z,8.65
2023-10-15T15:00:51.078Z,4.22
2023-10-15T15:03:22.566Z,3.92
2023-10-15T15:05:52.701Z,2.03
2023-10-15T15:08:20.197Z,2.15
2023-10-15T15:10:49.585Z,7.63
2023-10-15T15:13:16.876Z,1.55
2023-10-15T15:15:44.302Z,2.10
2023-10-15T15:18:11.430Z,8.48
2023-10-15T15:20:38.491Z,5.35
2023-10-15T15:23:05.607Z,2.25
2023-10-15T15:25:32.706Z,2.78
2023-10-15T15:27:59.867Z,4.40
2023-10-15T15:30:27.421Z,3.85
2023-10-15T15:32:55.062Z,3.92
2023-10-15T15:35:22.819Z,3.20
2023-10-15T15:37:49.999Z,10.63
2023-10-15T15:40:17.194Z,3.03
2023-10-15T15:42:44.429Z,5.13
2023-10-15T15:45:14.062Z,2.53
2023-10-15T15:47:41.606Z,1.10
2023-10-15T15:50:14.082Z,2.45
2023-10-15T15:52:46.017Z,3.42
2023-10-15T15:55:13.244Z,4.65
2023-10-15T15:57:40.687Z,1.25
2023-10-15T16:00:09.698Z,3.47
2023-10-15T16:02:38.677Z,4.40
2023-10-15T16:05:06.791Z,3.03
2023-10-15T16:07:34.470Z,3.35
2023-10-15T16:10:02.796Z,5.78
2023-10-15T16:12:33.566Z,3.67
2023-10-15T16:15:02.296Z,3.90
2023-10-15T16:17:29.348Z,5.07
2023-10-15T16:19:56.480Z,1.73
2023-10-15T16:22:23.754Z,10.10
2023-10-15T16:25:00.665Z,6.55
2023-10-15T16:27:33.204Z,1.10
2023-10-15T16:29:59.963Z,3.38
2023-10-15T16:32:40.190Z,2.27
2023-10-15T16:35:31.577Z,2.85
2023-10-15T16:37:59.113Z,3.88
2023-10-15T16:40:26.320Z,1.45
2023-10-15T16:42:53.230Z,3.55
2023-10-15T16:45:20.784Z,3.67
2023-10-15T16:47:53.411Z,1.15
2023-10-15T16:50:23.794Z,2.17
2023-10-15T16:52:53.892Z,3.22
2023-10-15T16:55:21.202Z,1.67
2023-10-15T16:57:50.984Z,1.75
2023-10-15T17:00:24.258Z,0.40
2023-10-15T17:02:54.560Z,1.88
2023-10-15T17:05:21.980Z,3.80
2023-10-15T17:07:49.051Z,5.70
2023-10-15T17:10:16.802Z,2.10
2023-10-15T17:12:44.156Z,3.58
2023-10-15T17:15:14.414Z,1.48
2023-10-15T17:17:55.318Z,3.88
2023-10-15T17:20:26.050Z,2.58
2023-10-15T17:23:08.348Z,3.47
2023-10-15T17:25:39.107Z,2.92
2023-10-15T17:28:06.823Z,3.45
2023-10-15T17:30:36.998Z,8.68
2023-10-15T17:33:04.904Z,2.72
2023-10-15T17:35:32.804Z,2.95
2023-10-15T17:38:00.277Z,3.42
2023-10-15T17:40:27.696Z,3.40
2023-10-15T17:42:55.030Z,4.22
2023-10-15T17:45:26.298Z,4.13
2023-10-15T17:48:04.153Z,5.82
2023-10-15T17:51:05.241Z,4.38
2023-10-15T17:59:22.424Z,5.45
2023-10-15T18:06:01.110Z,3.40
2023-10-15T18:08:13.210Z,5.38
2023-10-15T18:09:02.271Z,6.28
2023-10-15T18:12:11.472Z,3.53
2023-10-15T18:15:26.715Z,12.77
2023-10-15T18:18:51.118Z,5.47
2023-10-15T18:21:18.401Z,6.88
2023-10-15T18:23:45.672Z,12.30
2023-10-15T18:26:12.971Z,10.23
2023-10-15T18:28:39.833Z,7.72
2023-10-15T18:31:07.192Z,6.97
2023-10-15T18:33:34.556Z,5.40
2023-10-15T18:36:01.575Z,2.10
2023-10-15T18:38:28.787Z,9.55
2023-10-15T18:40:56.678Z,6.03
2023-10-15T18:43:25.029Z,6.88
2023-10-15T18:45:52.285Z,6.57
2023-10-15T18:48:24.493Z,7.05
2023-10-15T18:50:54.441Z,3.55
2023-10-15T18:53:30.595Z,4.28
2023-10-15T18:55:58.626Z,4.22
2023-10-15T18:58:28.402Z,5.55
2023-10-15T19:01:05.653Z,5.97
2023-10-15T19:03:33.456Z,3.28
2023-10-15T19:06:02.617Z,5.93
2023-10-15T19:08:31.284Z,5.70
2023-10-15T19:11:01.464Z,6.57
2023-10-15T19:13:30.807Z,3.53
2023-10-15T19:16:02.918Z,5.60
2023-10-15T19:18:32.417Z,3.17
2023-10-15T19:21:02.657Z,2.80
2023-10-15T19:23:29.948Z,4.97
2023-10-15T19:26:07.242Z,4.88
2023-10-15T19:28:40.877Z,10.57
2023-10-15T19:31:09.153Z,2.70
2023-10-15T19:33:46.561Z,9.35
2023-10-15T19:49:52.960Z,9.30
2023-10-15T20:36:15.650Z,6.30
2023-10-15T20:46:38.081Z,6.95
2023-10-15T20:50:01.045Z,9.10
2023-10-15T20:53:05.650Z,11.10
2023-10-15T21:04:45.396Z,9.90
2023-10-15T21:07:34.680Z,7.63
2023-10-15T21:10:06.751Z,5.28
2023-10-15T21:12:42.987Z,9.32
2023-10-15T21:15:27.309Z,8.98
2023-10-15T21:18:02.966Z,11.90
2023-10-15T21:20:30.163Z,7.25
2023-10-15T21:22:57.116Z,8.82
2023-10-15T21:25:24.206Z,10.63
2023-10-15T21:27:52.307Z,7.35
2023-10-15T21:30:22.155Z,13.90
2023-10-15T21:32:49.851Z,10.13
2023-10-15T21:37:44.056Z,13.15
2023-10-15T21:40:16.179Z,17.33
2023-10-15T21:42:47.801Z,11.73
2023-10-15T21:45:15.074Z,6.45
2023-10-15T21:47:43.809Z,8.40
2023-10-15T21:50:13.993Z,10.48
2023-10-15T21:52:40.765Z,13.43
2023-10-15T21:55:08.498Z,12.68
2023-10-15T22:00:05.086Z,6.57
2023-10-15T22:02:38.811Z,10.68
2023-10-15T22:05:06.330Z,7.70
2023-10-15T22:07:33.130Z,11.77
2023-10-15T22:09:59.948Z,8.43
2023-10-15T22:12:28.265Z,5.35
2023-10-15T22:14:55.274Z,4.60
2023-10-15T22:17:22.411Z,5.13
2023-10-15T22:19:49.361Z,9.85
2023-10-15T22:22:18.989Z,9.43
2023-10-15T22:24:46.196Z,5.38
2023-10-15T22:27:16.024Z,5.15
2023-10-15T22:29:45.961Z,12.27
2023-10-15T22:32:13.282Z,9.40
2023-10-15T22:34:40.432Z,10.13
2023-10-15T22:37:07.572Z,16.13
2023-10-15T22:39:38.486Z,16.17
2023-10-15T22:42:12.827Z,11.77
2023-10-15T22:44:46.057Z,6.90
2023-10-15T22:47:16.654Z,6.32
2023-10-15T22:49:43.836Z,15.40
2023-10-15T22:52:11.307Z,6.18
2023-10-15T22:54:38.389Z,9.50
2023-10-15T22:57:05.368Z,15.15
2023-10-15T22:59:32.761Z,12.85
2023-10-15T23:02:00.788Z,6.93
2023-10-15T23:04:28.626Z,7.05
2023-10-15T23:06:55.932Z,8.52
2023-10-15T23:09:23.133Z,5.30
2023-10-15T23:11:50.500Z,4.38
2023-10-15T23:14:17.415Z,7.93
2023-10-15T23:16:46.324Z,7.00
2023-10-15T23:19:17.125Z,5.57
2023-10-15T23:21:49.761Z,6.53
2023-10-15T23:24:17.538Z,6.65
2023-10-15T23:26:44.469Z,5.85
2023-10-15T23:29:11.217Z,9.83
2023-10-15T23:31:40.462Z,4.50
2023-10-15T23:34:10.141Z,10.57
2023-10-15T23:36:37.224Z,6.82
2023-10-15T23:39:06.339Z,7.53
2023-10-15T23:41:35.270Z,15.73
2023-10-15T23:44:02.360Z,5.07
2023-10-15T23:46:29.224Z,4.00
2023-10-15T23:49:00.536Z,12.17
2023-10-15T23:51:29.896Z,10.45
2023-10-15T23:53:56.955Z,8.52
2023-10-15T23:56:33.251Z,7.30
2023-10-15T23:59:03.563Z,11.73
